sensor_id;sensor_type;location;lat;lon;timestamp;P1;durP1;ratioP1;P2;durP2;ratioP2
14923;SDS011;7554;43.600;1.480;2024-02-23T00:01:08;12.40;;;2.90;;
14923;SDS011;7554;43.600;1.480;2024-02-23T00:03:37;10.63;;;2.23;;
14923;SDS011;7554;43.600;1.480;2024-02-23T00:06:04;7.93;;;2.23;;
14923;SDS011;7554;43.600;1.480;2024-02-23T00:08:32;10.87;;;2.60;;
14923;SDS011;7554;43.600;1.480;2024-02-23T00:11:00;15.10;;;2.47;;
14923;SDS011;7554;43.600;1.480;2024-02-23T00:13:27;11.67;;;2.70;;
14923;SDS011;7554;43.600;1.480;2024-02-23T00:15:55;11.63;;;2.37;;
14923;SDS011;7554;43.600;1.480;2024-02-23T00:18:23;12.07;;;2.67;;
14923;SDS011;7554;43.600;1.480;2024-02-23T00:20:51;13.27;;;2.07;;
14923;SDS011;7554;43.600;1.480;2024-02-23T00:23:18;13.23;;;2.30;;
14923;SDS011;7554;43.600;1.480;2024-02-23T00:25:45;10.00;;;2.63;;
14923;SDS011;7554;43.600;1.480;2024-02-23T00:28:13;12.70;;;2.40;;
14923;SDS011;7554;43.600;1.480;2024-02-23T00:30:40;8.10;;;1.93;;
14923;SDS011;7554;43.600;1.480;2024-02-23T00:33:07;10.50;;;2.50;;
14923;SDS011;7554;43.600;1.480;2024-02-23T00:35:36;10.50;;;3.07;;
14923;SDS011;7554;43.600;1.480;2024-02-23T00:38:04;12.27;;;2.60;;
14923;SDS011;7554;43.600;1.480;2024-02-23T00:40:32;15.60;;;2.77;;
14923;SDS011;7554;43.600;1.480;2024-02-23T00:43:00;10.60;;;2.30;;
14923;SDS011;7554;43.600;1.480;2024-02-23T00:45:28;9.03;;;2.27;;
14923;SDS011;7554;43.600;1.480;2024-02-23T00:47:55;16.77;;;3.03;;
14923;SDS011;7554;43.600;1.480;2024-02-23T00:50:23;12.07;;;2.67;;
14923;SDS011;7554;43.600;1.480;2024-02-23T00:52:52;12.40;;;2.30;;
14923;SDS011;7554;43.600;1.480;2024-02-23T00:55:20;13.30;;;2.83;;
14923;SDS011;7554;43.600;1.480;2024-02-23T00:57:47;8.90;;;2.30;;
14923;SDS011;7554;43.600;1.480;2024-02-23T01:00:15;15.63;;;3.10;;
14923;SDS011;7554;43.600;1.480;2024-02-23T01:02:43;10.23;;;2.83;;
14923;SDS011;7554;43.600;1.480;2024-02-23T01:05:10;12.77;;;2.53;;
14923;SDS011;7554;43.600;1.480;2024-02-23T01:07:37;11.27;;;2.60;;
14923;SDS011;7554;43.600;1.480;2024-02-23T01:10:07;10.83;;;2.53;;
14923;SDS011;7554;43.600;1.480;2024-02-23T01:12:34;17.20;;;3.23;;
14923;SDS011;7554;43.600;1.480;2024-02-23T01:15:02;13.20;;;2.40;;
14923;SDS011;7554;43.600;1.480;2024-02-23T01:17:30;11.30;;;2.20;;
14923;SDS011;7554;43.600;1.480;2024-02-23T01:19:57;10.53;;;2.27;;
14923;SDS011;7554;43.600;1.480;2024-02-23T01:22:25;7.50;;;2.20;;
14923;SDS011;7554;43.600;1.480;2024-02-23T01:24:52;14.90;;;2.90;;
14923;SDS011;7554;43.600;1.480;2024-02-23T01:27:21;12.43;;;2.10;;
14923;SDS011;7554;43.600;1.480;2024-02-23T01:29:48;11.43;;;2.17;;
14923;SDS011;7554;43.600;1.480;2024-02-23T01:32:16;9.80;;;1.80;;
14923;SDS011;7554;43.600;1.480;2024-02-23T01:34:43;10.07;;;2.70;;
14923;SDS011;7554;43.600;1.480;2024-02-23T01:37:10;10.30;;;2.60;;
14923;SDS011;7554;43.600;1.480;2024-02-23T01:39:38;11.67;;;2.63;;
14923;SDS011;7554;43.600;1.480;2024-02-23T01:42:05;12.50;;;3.23;;
14923;SDS011;7554;43.600;1.480;2024-02-23T01:44:34;9.67;;;2.50;;
14923;SDS011;7554;43.600;1.480;2024-02-23T01:47:01;11.50;;;3.07;;
14923;SDS011;7554;43.600;1.480;2024-02-23T01:49:29;10.13;;;2.40;;
14923;SDS011;7554;43.600;1.480;2024-02-23T01:51:58;7.50;;;2.20;;
14923;SDS011;7554;43.600;1.480;2024-02-23T01:54:27;11.33;;;2.57;;
14923;SDS011;7554;43.600;1.480;2024-02-23T01:56:55;10.27;;;2.50;;
14923;SDS011;7554;43.600;1.480;2024-02-23T01:59:23;11.70;;;2.37;;
14923;SDS011;7554;43.600;1.480;2024-02-23T02:01:53;11.03;;;2.50;;
14923;SDS011;7554;43.600;1.480;2024-02-23T02:04:20;15.20;;;2.70;;
14923;SDS011;7554;43.600;1.480;2024-02-23T02:06:48;11.43;;;2.20;;
14923;SDS011;7554;43.600;1.480;2024-02-23T02:09:15;8.67;;;2.10;;
14923;SDS011;7554;43.600;1.480;2024-02-23T02:11:46;11.37;;;2.60;;
14923;SDS011;7554;43.600;1.480;2024-02-23T02:14:13;11.90;;;2.27;;
14923;SDS011;7554;43.600;1.480;2024-02-23T02:16:40;12.57;;;2.47;;
14923;SDS011;7554;43.600;1.480;2024-02-23T02:19:10;11.53;;;2.60;;
14923;SDS011;7554;43.600;1.480;2024-02-23T02:21:38;13.80;;;2.40;;
14923;SDS011;7554;43.600;1.480;2024-02-23T02:24:06;13.97;;;2.60;;
14923;SDS011;7554;43.600;1.480;2024-02-23T02:26:34;15.93;;;2.50;;
14923;SDS011;7554;43.600;1.480;2024-02-23T02:29:02;14.63;;;2.37;;
14923;SDS011;7554;43.600;1.480;2024-02-23T02:31:29;14.00;;;2.30;;
14923;SDS011;7554;43.600;1.480;2024-02-23T02:34:02;14.27;;;2.20;;
14923;SDS011;7554;43.600;1.480;2024-02-23T02:36:31;10.83;;;2.37;;
14923;SDS011;7554;43.600;1.480;2024-02-23T02:38:59;13.83;;;2.67;;
14923;SDS011;7554;43.600;1.480;2024-02-23T02:41:27;12.80;;;2.80;;
14923;SDS011;7554;43.600;1.480;2024-02-23T02:43:56;12.20;;;2.50;;
14923;SDS011;7554;43.600;1.480;2024-02-23T02:46:23;11.17;;;2.10;;
14923;SDS011;7554;43.600;1.480;2024-02-23T02:48:50;11.73;;;2.50;;
14923;SDS011;7554;43.600;1.480;2024-02-23T02:51:18;11.63;;;2.20;;
14923;SDS011;7554;43.600;1.480;2024-02-23T02:53:47;10.80;;;2.50;;
14923;SDS011;7554;43.600;1.480;2024-02-23T02:56:14;9.43;;;2.10;;
14923;SDS011;7554;43.600;1.480;2024-02-23T02:58:41;10.50;;;2.27;;
14923;SDS011;7554;43.600;1.480;2024-02-23T03:01:09;15.03;;;2.60;;
14923;SDS011;7554;43.600;1.480;2024-02-23T03:03:36;8.63;;;2.10;;
14923;SDS011;7554;43.600;1.480;2024-02-23T03:06:04;12.13;;;2.40;;
14923;SDS011;7554;43.600;1.480;2024-02-23T03:08:32;7.77;;;2.13;;
14923;SDS011;7554;43.600;1.480;2024-02-23T03:11:01;11.53;;;2.70;;
14923;SDS011;7554;43.600;1.480;2024-02-23T03:13:28;15.50;;;2.27;;
14923;SDS011;7554;43.600;1.480;2024-02-23T03:15:56;9.00;;;2.30;;
14923;SDS011;7554;43.600;1.480;2024-02-23T03:18:24;12.97;;;2.53;;
14923;SDS011;7554;43.600;1.480;2024-02-23T03:20:52;8.40;;;1.97;;
14923;SDS011;7554;43.600;1.480;2024-02-23T03:23:20;10.97;;;2.03;;
14923;SDS011;7554;43.600;1.480;2024-02-23T03:25:47;12.33;;;2.33;;
14923;SDS011;7554;43.600;1.480;2024-02-23T03:28:16;9.53;;;2.20;;
14923;SDS011;7554;43.600;1.480;2024-02-23T03:30:43;10.80;;;1.97;;
14923;SDS011;7554;43.600;1.480;2024-02-23T03:33:11;10.57;;;2.40;;
14923;SDS011;7554;43.600;1.480;2024-02-23T03:35:38;4.17;;;1.43;;
14923;SDS011;7554;43.600;1.480;2024-02-23T03:38:05;5.93;;;1.80;;
14923;SDS011;7554;43.600;1.480;2024-02-23T03:40:33;7.70;;;1.73;;
14923;SDS011;7554;43.600;1.480;2024-02-23T03:43:02;6.83;;;1.53;;
14923;SDS011;7554;43.600;1.480;2024-02-23T03:45:31;9.77;;;2.00;;
14923;SDS011;7554;43.600;1.480;2024-02-23T03:47:59;9.70;;;1.87;;
14923;SDS011;7554;43.600;1.480;2024-02-23T03:50:26;8.30;;;1.70;;
14923;SDS011;7554;43.600;1.480;2024-02-23T03:52:54;6.03;;;1.40;;
14923;SDS011;7554;43.600;1.480;2024-02-23T03:55:21;10.77;;;1.97;;
14923;SDS011;7554;43.600;1.480;2024-02-23T03:57:49;9.70;;;1.50;;
14923;SDS011;7554;43.600;1.480;2024-02-23T04:00:17;7.50;;;1.73;;
14923;SDS011;7554;43.600;1.480;2024-02-23T04:02:49;6.97;;;1.53;;
14923;SDS011;7554;43.600;1.480;2024-02-23T04:05:17;8.40;;;1.80;;
14923;SDS011;7554;43.600;1.480;2024-02-23T04:07:45;5.90;;;1.33;;
14923;SDS011;7554;43.600;1.480;2024-02-23T04:10:12;7.63;;;1.27;;
14923;SDS011;7554;43.600;1.480;2024-02-23T04:12:41;4.87;;;1.27;;
14923;SDS011;7554;43.600;1.480;2024-02-23T04:15:09;4.87;;;1.17;;
14923;SDS011;7554;43.600;1.480;2024-02-23T04:17:37;10.77;;;1.47;;
14923;SDS011;7554;43.600;1.480;2024-02-23T04:20:07;4.23;;;1.07;;
14923;SDS011;7554;43.600;1.480;2024-02-23T04:22:36;7.77;;;1.60;;
14923;SDS011;7554;43.600;1.480;2024-02-23T04:25:03;8.60;;;1.20;;
14923;SDS011;7554;43.600;1.480;2024-02-23T04:27:31;7.13;;;1.20;;
14923;SDS011;7554;43.600;1.480;2024-02-23T04:29:58;9.33;;;1.43;;
14923;SDS011;7554;43.600;1.480;2024-02-23T04:32:26;6.17;;;1.40;;
14923;SDS011;7554;43.600;1.480;2024-02-23T04:34:53;6.27;;;1.20;;
14923;SDS011;7554;43.600;1.480;2024-02-23T04:37:23;3.90;;;1.00;;
14923;SDS011;7554;43.600;1.480;2024-02-23T04:39:50;4.13;;;0.93;;
14923;SDS011;7554;43.600;1.480;2024-02-23T04:42:17;6.20;;;1.23;;
14923;SDS011;7554;43.600;1.480;2024-02-23T04:44:45;5.97;;;1.20;;
14923;SDS011;7554;43.600;1.480;2024-02-23T04:47:14;6.77;;;1.50;;
14923;SDS011;7554;43.600;1.480;2024-02-23T04:49:42;4.10;;;0.90;;
14923;SDS011;7554;43.600;1.480;2024-02-23T04:52:09;7.43;;;1.40;;
14923;SDS011;7554;43.600;1.480;2024-02-23T04:54:38;4.67;;;1.17;;
14923;SDS011;7554;43.600;1.480;2024-02-23T04:57:05;4.17;;;1.13;;
14923;SDS011;7554;43.600;1.480;2024-02-23T04:59:32;5.33;;;1.00;;
14923;SDS011;7554;43.600;1.480;2024-02-23T05:02:00;4.33;;;1.10;;
14923;SDS011;7554;43.600;1.480;2024-02-23T05:04:27;3.93;;;0.83;;
14923;SDS011;7554;43.600;1.480;2024-02-23T05:06:54;4.07;;;0.90;;
14923;SDS011;7554;43.600;1.480;2024-02-23T05:09:22;4.27;;;0.83;;
14923;SDS011;7554;43.600;1.480;2024-02-23T05:11:50;4.40;;;0.90;;
14923;SDS011;7554;43.600;1.480;2024-02-23T05:14:18;2.50;;;0.70;;
14923;SDS011;7554;43.600;1.480;2024-02-23T05:16:45;3.93;;;0.73;;
14923;SDS011;7554;43.600;1.480;2024-02-23T05:19:12;3.33;;;0.80;;
14923;SDS011;7554;43.600;1.480;2024-02-23T05:21:40;3.13;;;0.83;;
14923;SDS011;7554;43.600;1.480;2024-02-23T05:24:07;4.57;;;0.77;;
14923;SDS011;7554;43.600;1.480;2024-02-23T05:26:34;4.10;;;0.70;;
14923;SDS011;7554;43.600;1.480;2024-02-23T05:29:03;3.07;;;0.70;;
14923;SDS011;7554;43.600;1.480;2024-02-23T05:31:43;3.13;;;0.87;;
14923;SDS011;7554;43.600;1.480;2024-02-23T05:34:12;1.90;;;0.63;;
14923;SDS011;7554;43.600;1.480;2024-02-23T05:36:39;3.67;;;0.80;;
14923;SDS011;7554;43.600;1.480;2024-02-23T05:39:06;3.90;;;1.00;;
14923;SDS011;7554;43.600;1.480;2024-02-23T05:41:34;2.40;;;0.87;;
14923;SDS011;7554;43.600;1.480;2024-02-23T05:44:04;5.53;;;0.97;;
14923;SDS011;7554;43.600;1.480;2024-02-23T05:46:32;4.30;;;1.20;;
14923;SDS011;7554;43.600;1.480;2024-02-23T05:48:59;2.80;;;0.80;;
14923;SDS011;7554;43.600;1.480;2024-02-23T05:51:27;4.10;;;0.90;;
14923;SDS011;7554;43.600;1.480;2024-02-23T05:53:55;2.40;;;0.50;;
14923;SDS011;7554;43.600;1.480;2024-02-23T05:56:23;3.83;;;1.00;;
14923;SDS011;7554;43.600;1.480;2024-02-23T05:58:50;3.07;;;0.73;;
14923;SDS011;7554;43.600;1.480;2024-02-23T06:01:19;2.97;;;0.80;;
14923;SDS011;7554;43.600;1.480;2024-02-23T06:03:46;6.10;;;0.90;;
14923;SDS011;7554;43.600;1.480;2024-02-23T06:06:14;2.80;;;0.83;;
14923;SDS011;7554;43.600;1.480;2024-02-23T06:08:41;4.67;;;1.40;;
14923;SDS011;7554;43.600;1.480;2024-02-23T06:11:09;4.93;;;1.00;;
14923;SDS011;7554;43.600;1.480;2024-02-23T06:13:36;3.83;;;1.03;;
14923;SDS011;7554;43.600;1.480;2024-02-23T06:16:04;2.17;;;0.67;;
14923;SDS011;7554;43.600;1.480;2024-02-23T06:18:33;4.87;;;0.80;;
14923;SDS011;7554;43.600;1.480;2024-02-23T06:21:01;3.13;;;0.90;;
14923;SDS011;7554;43.600;1.480;2024-02-23T06:23:30;3.33;;;0.90;;
14923;SDS011;7554;43.600;1.480;2024-02-23T06:25:58;4.20;;;1.20;;
14923;SDS011;7554;43.600;1.480;2024-02-23T06:28:25;5.77;;;1.40;;
14923;SDS011;7554;43.600;1.480;2024-02-23T06:30:52;3.77;;;1.03;;
14923;SDS011;7554;43.600;1.480;2024-02-23T06:33:20;3.50;;;1.10;;
14923;SDS011;7554;43.600;1.480;2024-02-23T06:35:48;14.57;;;2.83;;
14923;SDS011;7554;43.600;1.480;2024-02-23T06:38:17;3.43;;;0.93;;
14923;SDS011;7554;43.600;1.480;2024-02-23T06:40:44;18.40;;;4.03;;
14923;SDS011;7554;43.600;1.480;2024-02-23T06:43:12;4.00;;;1.33;;
14923;SDS011;7554;43.600;1.480;2024-02-23T06:45:39;5.27;;;1.47;;
14923;SDS011;7554;43.600;1.480;2024-02-23T06:48:07;5.40;;;0.97;;
14923;SDS011;7554;43.600;1.480;2024-02-23T06:50:35;10.03;;;2.47;;
14923;SDS011;7554;43.600;1.480;2024-02-23T06:53:04;3.43;;;1.00;;
14923;SDS011;7554;43.600;1.480;2024-02-23T06:55:33;3.13;;;0.77;;
14923;SDS011;7554;43.600;1.480;2024-02-23T06:58:01;5.50;;;1.40;;
14923;SDS011;7554;43.600;1.480;2024-02-23T07:00:30;5.63;;;1.00;;
14923;SDS011;7554;43.600;1.480;2024-02-23T07:02:57;4.47;;;0.83;;
14923;SDS011;7554;43.600;1.480;2024-02-23T07:05:28;5.93;;;1.00;;
14923;SDS011;7554;43.600;1.480;2024-02-23T07:07:56;5.53;;;1.03;;
14923;SDS011;7554;43.600;1.480;2024-02-23T07:10:25;5.47;;;0.83;;
14923;SDS011;7554;43.600;1.480;2024-02-23T07:12:52;6.93;;;1.10;;
14923;SDS011;7554;43.600;1.480;2024-02-23T07:15:21;4.50;;;1.07;;
14923;SDS011;7554;43.600;1.480;2024-02-23T07:17:49;4.00;;;0.77;;
14923;SDS011;7554;43.600;1.480;2024-02-23T07:20:17;4.47;;;1.60;;
14923;SDS011;7554;43.600;1.480;2024-02-23T07:22:44;3.10;;;1.30;;
14923;SDS011;7554;43.600;1.480;2024-02-23T07:25:15;2.70;;;1.27;;
14923;SDS011;7554;43.600;1.480;2024-02-23T07:27:44;4.27;;;1.27;;
14923;SDS011;7554;43.600;1.480;2024-02-23T07:30:12;3.43;;;1.60;;
14923;SDS011;7554;43.600;1.480;2024-02-23T07:32:39;3.23;;;1.07;;
14923;SDS011;7554;43.600;1.480;2024-02-23T07:35:07;3.27;;;0.73;;
14923;SDS011;7554;43.600;1.480;2024-02-23T07:37:35;4.03;;;0.90;;
14923;SDS011;7554;43.600;1.480;2024-02-23T07:40:03;2.30;;;0.87;;
14923;SDS011;7554;43.600;1.480;2024-02-23T07:42:31;2.60;;;0.80;;
14923;SDS011;7554;43.600;1.480;2024-02-23T07:45:02;2.37;;;0.90;;
14923;SDS011;7554;43.600;1.480;2024-02-23T07:47:30;3.23;;;1.00;;
14923;SDS011;7554;43.600;1.480;2024-02-23T07:49:57;2.90;;;1.57;;
14923;SDS011;7554;43.600;1.480;2024-02-23T07:52:25;3.53;;;1.30;;
14923;SDS011;7554;43.600;1.480;2024-02-23T07:54:53;2.30;;;0.97;;
14923;SDS011;7554;43.600;1.480;2024-02-23T07:57:20;3.63;;;1.20;;
14923;SDS011;7554;43.600;1.480;2024-02-23T07:59:48;4.07;;;1.30;;
14923;SDS011;7554;43.600;1.480;2024-02-23T08:02:17;2.47;;;1.27;;
14923;SDS011;7554;43.600;1.480;2024-02-23T08:04:44;7.37;;;1.50;;
14923;SDS011;7554;43.600;1.480;2024-02-23T08:07:13;4.53;;;1.30;;
14923;SDS011;7554;43.600;1.480;2024-02-23T08:09:40;4.00;;;1.50;;
14923;SDS011;7554;43.600;1.480;2024-02-23T08:12:09;3.20;;;0.90;;
14923;SDS011;7554;43.600;1.480;2024-02-23T08:14:36;4.30;;;1.00;;
14923;SDS011;7554;43.600;1.480;2024-02-23T08:17:03;7.20;;;2.03;;
14923;SDS011;7554;43.600;1.480;2024-02-23T08:19:32;4.37;;;1.03;;
14923;SDS011;7554;43.600;1.480;2024-02-23T08:22:00;5.27;;;1.20;;
14923;SDS011;7554;43.600;1.480;2024-02-23T08:24:27;3.07;;;0.77;;
14923;SDS011;7554;43.600;1.480;2024-02-23T08:26:54;2.07;;;1.07;;
14923;SDS011;7554;43.600;1.480;2024-02-23T08:29:22;7.17;;;1.20;;
14923;SDS011;7554;43.600;1.480;2024-02-23T08:31:49;2.83;;;0.80;;
14923;SDS011;7554;43.600;1.480;2024-02-23T08:34:16;2.70;;;0.90;;
14923;SDS011;7554;43.600;1.480;2024-02-23T08:36:45;3.73;;;1.00;;
14923;SDS011;7554;43.600;1.480;2024-02-23T08:39:12;3.73;;;1.37;;
14923;SDS011;7554;43.600;1.480;2024-02-23T08:41:40;2.77;;;1.10;;
14923;SDS011;7554;43.600;1.480;2024-02-23T08:44:07;5.70;;;1.70;;
14923;SDS011;7554;43.600;1.480;2024-02-23T08:46:34;4.13;;;1.60;;
14923;SDS011;7554;43.600;1.480;2024-02-23T08:49:04;3.23;;;1.27;;
14923;SDS011;7554;43.600;1.480;2024-02-23T08:51:31;2.87;;;1.07;;
14923;SDS011;7554;43.600;1.480;2024-02-23T08:54:00;6.53;;;2.20;;
14923;SDS011;7554;43.600;1.480;2024-02-23T08:56:29;3.13;;;0.93;;
14923;SDS011;7554;43.600;1.480;2024-02-23T08:58:57;4.97;;;1.10;;
14923;SDS011;7554;43.600;1.480;2024-02-23T09:01:25;2.60;;;0.70;;
14923;SDS011;7554;43.600;1.480;2024-02-23T09:03:52;5.43;;;1.27;;
14923;SDS011;7554;43.600;1.480;2024-02-23T09:06:19;3.70;;;0.90;;
14923;SDS011;7554;43.600;1.480;2024-02-23T09:08:46;5.53;;;1.07;;
14923;SDS011;7554;43.600;1.480;2024-02-23T09:11:15;3.80;;;0.70;;
14923;SDS011;7554;43.600;1.480;2024-02-23T09:13:46;4.67;;;1.07;;
14923;SDS011;7554;43.600;1.480;2024-02-23T09:16:13;3.80;;;0.87;;
14923;SDS011;7554;43.600;1.480;2024-02-23T09:18:41;4.40;;;0.97;;
14923;SDS011;7554;43.600;1.480;2024-02-23T09:21:08;2.33;;;0.80;;
14923;SDS011;7554;43.600;1.480;2024-02-23T09:23:36;3.57;;;0.80;;
14923;SDS011;7554;43.600;1.480;2024-02-23T09:26:08;2.83;;;0.77;;
14923;SDS011;7554;43.600;1.480;2024-02-23T09:28:38;2.10;;;0.70;;
14923;SDS011;7554;43.600;1.480;2024-02-23T09:31:07;2.57;;;0.80;;
14923;SDS011;7554;43.600;1.480;2024-02-23T09:33:34;3.37;;;0.80;;
14923;SDS011;7554;43.600;1.480;2024-02-23T09:36:01;3.33;;;1.00;;
14923;SDS011;7554;43.600;1.480;2024-02-23T09:38:29;3.60;;;0.80;;
14923;SDS011;7554;43.600;1.480;2024-02-23T09:40:57;3.93;;;1.20;;
14923;SDS011;7554;43.600;1.480;2024-02-23T09:43:26;1.53;;;0.80;;
14923;SDS011;7554;43.600;1.480;2024-02-23T09:45:58;5.87;;;1.30;;
14923;SDS011;7554;43.600;1.480;2024-02-23T09:48:26;2.70;;;0.77;;
14923;SDS011;7554;43.600;1.480;2024-02-23T09:50:55;5.67;;;1.10;;
14923;SDS011;7554;43.600;1.480;2024-02-23T09:53:24;8.10;;;1.27;;
14923;SDS011;7554;43.600;1.480;2024-02-23T09:55:51;3.43;;;0.90;;
14923;SDS011;7554;43.600;1.480;2024-02-23T09:58:19;1.90;;;0.90;;
14923;SDS011;7554;43.600;1.480;2024-02-23T10:00:49;4.17;;;1.00;;
14923;SDS011;7554;43.600;1.480;2024-02-23T10:03:18;2.63;;;0.73;;
14923;SDS011;7554;43.600;1.480;2024-02-23T10:05:51;2.87;;;0.80;;
14923;SDS011;7554;43.600;1.480;2024-02-23T10:08:18;5.00;;;1.10;;
14923;SDS011;7554;43.600;1.480;2024-02-23T10:10:46;5.57;;;0.93;;
14923;SDS011;7554;43.600;1.480;2024-02-23T10:13:17;5.63;;;1.43;;
14923;SDS011;7554;43.600;1.480;2024-02-23T10:15:45;1.93;;;0.70;;
14923;SDS011;7554;43.600;1.480;2024-02-23T10:18:13;4.50;;;1.37;;
14923;SDS011;7554;43.600;1.480;2024-02-23T10:20:42;4.27;;;1.07;;
14923;SDS011;7554;43.600;1.480;2024-02-23T10:23:10;1.53;;;0.90;;
14923;SDS011;7554;43.600;1.480;2024-02-23T10:25:37;4.37;;;0.83;;
14923;SDS011;7554;43.600;1.480;2024-02-23T10:28:05;2.93;;;0.80;;
14923;SDS011;7554;43.600;1.480;2024-02-23T10:30:33;4.00;;;1.03;;
14923;SDS011;7554;43.600;1.480;2024-02-23T10:33:00;3.67;;;0.80;;
14923;SDS011;7554;43.600;1.480;2024-02-23T10:35:28;5.60;;;0.90;;
14923;SDS011;7554;43.600;1.480;2024-02-23T10:38:01;2.17;;;0.70;;
14923;SDS011;7554;43.600;1.480;2024-02-23T10:40:31;3.57;;;0.80;;
14923;SDS011;7554;43.600;1.480;2024-02-23T10:43:01;5.37;;;0.90;;
14923;SDS011;7554;43.600;1.480;2024-02-23T10:45:29;1.87;;;0.80;;
14923;SDS011;7554;43.600;1.480;2024-02-23T10:47:57;1.73;;;0.80;;
14923;SDS011;7554;43.600;1.480;2024-02-23T10:50:25;2.13;;;0.53;;
14923;SDS011;7554;43.600;1.480;2024-02-23T10:52:53;3.27;;;0.60;;
14923;SDS011;7554;43.600;1.480;2024-02-23T10:55:23;1.90;;;0.70;;
14923;SDS011;7554;43.600;1.480;2024-02-23T10:57:53;1.17;;;0.60;;
14923;SDS011;7554;43.600;1.480;2024-02-23T11:00:23;2.30;;;0.90;;
14923;SDS011;7554;43.600;1.480;2024-02-23T11:02:51;2.60;;;0.70;;
14923;SDS011;7554;43.600;1.480;2024-02-23T11:05:19;3.13;;;0.77;;
14923;SDS011;7554;43.600;1.480;2024-02-23T11:07:47;2.03;;;0.93;;
14923;SDS011;7554;43.600;1.480;2024-02-23T11:10:15;3.60;;;1.57;;
14923;SDS011;7554;43.600;1.480;2024-02-23T11:12:45;4.50;;;1.00;;
14923;SDS011;7554;43.600;1.480;2024-02-23T11:15:25;2.17;;;0.70;;
14923;SDS011;7554;43.600;1.480;2024-02-23T11:17:54;2.90;;;0.73;;
14923;SDS011;7554;43.600;1.480;2024-02-23T11:20:21;2.80;;;0.90;;
14923;SDS011;7554;43.600;1.480;2024-02-23T11:22:51;2.27;;;0.60;;
14923;SDS011;7554;43.600;1.480;2024-02-23T11:25:19;2.07;;;1.20;;
14923;SDS011;7554;43.600;1.480;2024-02-23T11:27:50;2.43;;;0.80;;
14923;SDS011;7554;43.600;1.480;2024-02-23T11:30:17;2.47;;;1.17;;
14923;SDS011;7554;43.600;1.480;2024-02-23T11:32:45;3.10;;;0.80;;
14923;SDS011;7554;43.600;1.480;2024-02-23T11:35:15;3.23;;;0.90;;
14923;SDS011;7554;43.600;1.480;2024-02-23T11:37:45;3.77;;;1.00;;
14923;SDS011;7554;43.600;1.480;2024-02-23T11:40:13;4.43;;;0.87;;
14923;SDS011;7554;43.600;1.480;2024-02-23T11:42:41;4.17;;;0.90;;
14923;SDS011;7554;43.600;1.480;2024-02-23T11:45:10;3.87;;;1.03;;
14923;SDS011;7554;43.600;1.480;2024-02-23T11:47:38;4.33;;;0.63;;
14923;SDS011;7554;43.600;1.480;2024-02-23T11:50:07;9.20;;;1.17;;
14923;SDS011;7554;43.600;1.480;2024-02-23T11:52:35;3.80;;;0.90;;
14923;SDS011;7554;43.600;1.480;2024-02-23T11:55:04;2.27;;;1.17;;
14923;SDS011;7554;43.600;1.480;2024-02-23T11:57:33;1.97;;;0.80;;
14923;SDS011;7554;43.600;1.480;2024-02-23T12:00:01;3.23;;;1.20;;
14923;SDS011;7554;43.600;1.480;2024-02-23T12:02:30;2.70;;;1.07;;
14923;SDS011;7554;43.600;1.480;2024-02-23T12:04:57;6.87;;;1.73;;
14923;SDS011;7554;43.600;1.480;2024-02-23T12:07:24;3.80;;;1.23;;
14923;SDS011;7554;43.600;1.480;2024-02-23T12:09:54;3.53;;;1.00;;
14923;SDS011;7554;43.600;1.480;2024-02-23T12:12:21;4.60;;;1.13;;
14923;SDS011;7554;43.600;1.480;2024-02-23T12:14:49;4.07;;;1.10;;
14923;SDS011;7554;43.600;1.480;2024-02-23T12:17:16;12.37;;;2.77;;
14923;SDS011;7554;43.600;1.480;2024-02-23T12:19:45;9.83;;;1.40;;
14923;SDS011;7554;43.600;1.480;2024-02-23T12:22:12;1.23;;;0.70;;
14923;SDS011;7554;43.600;1.480;2024-02-23T12:24:40;2.20;;;1.00;;
14923;SDS011;7554;43.600;1.480;2024-02-23T12:27:08;2.83;;;1.00;;
14923;SDS011;7554;43.600;1.480;2024-02-23T12:29:35;1.43;;;0.70;;
14923;SDS011;7554;43.600;1.480;2024-02-23T12:32:03;1.10;;;0.60;;
14923;SDS011;7554;43.600;1.480;2024-02-23T12:34:31;1.70;;;0.50;;
14923;SDS011;7554;43.600;1.480;2024-02-23T12:36:59;2.20;;;0.43;;
14923;SDS011;7554;43.600;1.480;2024-02-23T12:39:30;1.50;;;0.70;;
14923;SDS011;7554;43.600;1.480;2024-02-23T12:41:57;1.27;;;0.70;;
14923;SDS011;7554;43.600;1.480;2024-02-23T12:44:25;2.43;;;0.80;;
14923;SDS011;7554;43.600;1.480;2024-02-23T12:46:52;3.70;;;0.73;;
14923;SDS011;7554;43.600;1.480;2024-02-23T12:49:19;1.63;;;0.87;;
14923;SDS011;7554;43.600;1.480;2024-02-23T12:51:47;1.90;;;1.07;;
14923;SDS011;7554;43.600;1.480;2024-02-23T12:54:16;1.47;;;0.50;;
14923;SDS011;7554;43.600;1.480;2024-02-23T12:56:43;2.30;;;0.60;;
14923;SDS011;7554;43.600;1.480;2024-02-23T12:59:10;1.77;;;0.70;;
14923;SDS011;7554;43.600;1.480;2024-02-23T13:01:37;1.87;;;0.63;;
14923;SDS011;7554;43.600;1.480;2024-02-23T13:04:05;2.40;;;0.70;;
14923;SDS011;7554;43.600;1.480;2024-02-23T13:06:35;1.23;;;0.30;;
14923;SDS011;7554;43.600;1.480;2024-02-23T13:09:03;1.77;;;0.50;;
14923;SDS011;7554;43.600;1.480;2024-02-23T13:11:34;3.77;;;1.00;;
14923;SDS011;7554;43.600;1.480;2024-02-23T13:14:01;3.87;;;1.00;;
14923;SDS011;7554;43.600;1.480;2024-02-23T13:16:29;4.30;;;1.10;;
14923;SDS011;7554;43.600;1.480;2024-02-23T13:18:56;2.83;;;0.60;;
14923;SDS011;7554;43.600;1.480;2024-02-23T13:21:23;4.43;;;0.93;;
14923;SDS011;7554;43.600;1.480;2024-02-23T13:23:50;2.80;;;0.70;;
14923;SDS011;7554;43.600;1.480;2024-02-23T13:26:18;4.87;;;1.00;;
14923;SDS011;7554;43.600;1.480;2024-02-23T13:28:46;1.80;;;0.83;;
14923;SDS011;7554;43.600;1.480;2024-02-23T13:31:14;3.80;;;0.60;;
14923;SDS011;7554;43.600;1.480;2024-02-23T13:33:42;4.10;;;0.90;;
14923;SDS011;7554;43.600;1.480;2024-02-23T13:36:10;6.20;;;0.67;;
14923;SDS011;7554;43.600;1.480;2024-02-23T13:38:38;1.50;;;0.60;;
14923;SDS011;7554;43.600;1.480;2024-02-23T13:41:06;3.07;;;0.60;;
14923;SDS011;7554;43.600;1.480;2024-02-23T13:43:34;2.30;;;1.00;;
14923;SDS011;7554;43.600;1.480;2024-02-23T13:46:03;3.83;;;1.07;;
14923;SDS011;7554;43.600;1.480;2024-02-23T13:48:30;4.83;;;1.07;;
14923;SDS011;7554;43.600;1.480;2024-02-23T13:50:58;3.93;;;1.40;;
14923;SDS011;7554;43.600;1.480;2024-02-23T13:53:28;3.77;;;1.17;;
14923;SDS011;7554;43.600;1.480;2024-02-23T13:55:56;4.03;;;0.93;;
14923;SDS011;7554;43.600;1.480;2024-02-23T13:58:25;2.33;;;0.63;;
14923;SDS011;7554;43.600;1.480;2024-02-23T14:00:54;3.27;;;0.60;;
14923;SDS011;7554;43.600;1.480;2024-02-23T14:03:22;1.97;;;0.80;;
14923;SDS011;7554;43.600;1.480;2024-02-23T14:05:50;3.47;;;0.70;;
14923;SDS011;7554;43.600;1.480;2024-02-23T14:08:17;3.53;;;0.80;;
14923;SDS011;7554;43.600;1.480;2024-02-23T14:10:44;1.67;;;0.90;;
14923;SDS011;7554;43.600;1.480;2024-02-23T14:13:12;3.13;;;1.10;;
14923;SDS011;7554;43.600;1.480;2024-02-23T14:15:39;4.30;;;1.00;;
14923;SDS011;7554;43.600;1.480;2024-02-23T14:18:07;3.67;;;0.70;;
14923;SDS011;7554;43.600;1.480;2024-02-23T14:20:36;4.17;;;1.20;;
14923;SDS011;7554;43.600;1.480;2024-02-23T14:23:03;1.17;;;0.50;;
14923;SDS011;7554;43.600;1.480;2024-02-23T14:25:30;2.10;;;0.63;;
14923;SDS011;7554;43.600;1.480;2024-02-23T14:27:58;0.83;;;0.47;;
14923;SDS011;7554;43.600;1.480;2024-02-23T14:30:26;4.00;;;1.10;;
14923;SDS011;7554;43.600;1.480;2024-02-23T14:32:53;2.70;;;0.60;;
14923;SDS011;7554;43.600;1.480;2024-02-23T14:35:21;4.97;;;1.97;;
14923;SDS011;7554;43.600;1.480;2024-02-23T14:37:49;1.53;;;0.40;;
14923;SDS011;7554;43.600;1.480;2024-02-23T14:40:17;3.43;;;1.07;;
14923;SDS011;7554;43.600;1.480;2024-02-23T14:42:44;1.53;;;0.60;;
14923;SDS011;7554;43.600;1.480;2024-02-23T14:45:12;3.33;;;0.70;;
14923;SDS011;7554;43.600;1.480;2024-02-23T14:47:41;2.27;;;0.60;;
14923;SDS011;7554;43.600;1.480;2024-02-23T14:50:10;3.50;;;0.50;;
14923;SDS011;7554;43.600;1.480;2024-02-23T14:52:37;2.20;;;0.90;;
14923;SDS011;7554;43.600;1.480;2024-02-23T14:55:06;1.67;;;0.70;;
14923;SDS011;7554;43.600;1.480;2024-02-23T14:57:36;3.40;;;0.47;;
14923;SDS011;7554;43.600;1.480;2024-02-23T15:00:04;3.60;;;0.70;;
14923;SDS011;7554;43.600;1.480;2024-02-23T15:02:32;1.90;;;0.70;;